Time;durP1;ratioP1;P1;durP2;ratioP2;P2;SDS_P1;SDS_P2;PMS_P1;PMS_P2;Temp;Humidity;BMP_temperature;BMP_pressure;BME280_temperature;BME280_humidity;BME280_pressure;Samples;Min_cycle;Max_cycle;Signal;HPM_P1;HPM_P2
2021/06/05 00:07:10;;;;;;;8.13;3.90;;;20.10;99.90;;;;;;1462841;23;20191;-95
2021/06/05 00:25:03;;;;;;;9.43;4.95;;;20.00;99.90;;;;;;3880977;23;20097;-86
2021/06/05 00:33:27;;;;;;;7.50;3.58;;;20.30;99.90;;;;;;3554854;40;20083;-86
2021/06/05 00:35:55;;;;;;;8.15;3.22;;;20.40;99.90;;;;;;3544995;40;20070;-87
2021/06/05 00:41:19;;;;;;;6.22;3.20;;;20.40;99.90;;;;;;3544551;40;20023;-86
2021/06/05 00:44:03;;;;;;;12.57;3.70;;;20.40;99.90;;;;;;3618684;23;20051;-86
2021/06/05 00:49:37;;;;;;;8.45;3.60;;;20.30;99.90;;;;;;3572547;40;20273;-89
2021/06/05 00:55:06;;;;;;;4.60;3.03;;;20.30;99.90;;;;;;3624463;23;20027;-87
2021/06/05 00:57:34;;;;;;;8.10;2.90;;;20.20;99.90;;;;;;3527797;40;20038;-88
2021/06/05 01:00:10;;;;;;;8.00;3.17;;;20.10;99.90;;;;;;3520561;40;20061;-87
2021/06/05 01:05:46;;;;;;;5.88;3.67;;;20.00;99.90;;;;;;756357;23;20264;-89
2021/06/05 01:23:13;;;;;;;6.72;3.40;;;19.90;99.90;;;;;;3789019;23;20051;-92
2021/06/05 01:28:34;;;;;;;6.60;3.78;;;19.90;99.90;;;;;;3647040;39;20360;-84
2021/06/05 01:31:06;;;;;;;6.47;4.28;;;19.80;99.90;;;;;;3620183;39;20045;-82
2021/06/05 01:33:45;;;;;;;6.45;4.13;;;19.80;99.90;;;;;;3619602;39;20027;-84
2021/06/05 01:36:19;;;;;;;8.38;3.95;;;19.80;99.90;;;;;;3620763;39;20046;-82
2021/06/05 01:38:50;;;;;;;6.03;4.03;;;19.80;99.90;;;;;;3620618;39;20036;-83
2021/06/05 01:41:22;;;;;;;6.75;4.15;;;19.80;99.90;;;;;;3620092;39;20039;-83
2021/06/05 01:43:53;;;;;;;8.55;4.47;;;19.80;99.90;;;;;;3620501;39;20039;-82
2021/06/05 01:46:27;;;;;;;5.75;3.60;;;19.80;99.90;;;;;;3619736;39;20532;-85
2021/06/05 01:48:57;;;;;;;6.50;3.95;;;19.80;99.90;;;;;;3620379;39;20038;-83
2021/06/05 01:51:28;;;;;;;5.80;3.97;;;19.80;99.90;;;;;;3620673;39;20055;-83
2021/06/05 01:54:06;;;;;;;6.60;3.58;;;19.70;99.90;;;;;;3621390;39;20019;-83
2021/06/05 01:59:29;;;;;;;6.82;3.97;;;19.60;99.90;;;;;;3770559;22;20049;31
2021/06/05 02:02:08;;;;;;;6.40;4.38;;;19.60;99.90;;;;;;3808503;22;20073;-90
2021/06/05 02:07:31;;;;;;;7.13;4.70;;;19.70;99.90;;;;;;3749476;22;20056;-91
2021/06/05 02:16:15;;;;;;;6.90;4.50;;;19.60;99.90;;;;;;1298721;22;20162;-91
2021/06/05 02:19:14;;;;;;;7.07;4.20;;;19.60;99.90;;;;;;1299034;22;21398;-88
2021/06/05 02:21:57;;;;;;;6.65;3.83;;;19.50;99.90;;;;;;1225768;22;20187;-88
2021/06/05 02:24:35;;;;;;;6.50;3.75;;;19.40;99.90;;;;;;3594393;39;20036;-87
2021/06/05 02:32:40;;;;;;;8.38;4.05;;;19.30;99.90;;;;;;3608941;39;20037;-86
2021/06/05 02:35:14;;;;;;;7.53;4.13;;;19.30;99.90;;;;;;3609563;40;20024;-86
2021/06/05 02:37:53;;;;;;;6.20;3.25;;;19.30;99.90;;;;;;3583165;39;20047;-86
2021/06/05 02:40:28;;;;;;;8.15;4.60;;;19.20;99.90;;;;;;3578119;40;20033;-85
2021/06/05 02:42:58;;;;;;;8.13;4.00;;;19.20;99.90;;;;;;3595210;39;20071;-86
2021/06/05 02:46:00;;;;;;;5.93;4.00;;;19.40;99.90;;;;;;3613817;22;20226;-88
2021/06/05 02:48:59;;;;;;;7.20;4.10;;;19.40;99.90;;;;;;3707320;22;20061;-88
2021/06/05 02:51:43;;;;;;;7.60;4.88;;;19.60;99.90;;;;;;3792220;22;20051;-89
2021/06/05 02:54:24;;;;;;;11.45;5.97;;;19.70;99.90;;;;;;1444796;22;20194;-91
2021/06/05 02:56:58;;;;;;;12.50;7.05;;;19.60;99.90;;;;;;1293889;22;20220;-91
2021/06/05 03:05:16;;;;;;;9.13;5.10;;;19.20;99.90;;;;;;3612844;39;20032;-86
2021/06/05 03:19:31;;;;;;;7.72;4.75;;;19.10;99.90;;;;;;3762951;22;20373;-91
2021/06/05 03:25:05;;;;;;;7.90;5.30;;;19.20;99.90;;;;;;3733004;22;20066;-88
2021/06/05 03:27:34;;;;;;;11.18;6.00;;;19.10;99.90;;;;;;3753329;22;20076;-90
2021/06/05 03:30:34;;;;;;;7.85;5.18;;;19.10;99.90;;;;;;3800574;22;20158;-89
2021/06/05 03:33:36;;;;;;;9.60;4.75;;;19.10;99.90;;;;;;3722184;22;20076;-89
2021/06/05 03:39:01;;;;;;;8.35;4.80;;;19.20;99.90;;;;;;3614352;39;20031;-84
2021/06/05 03:41:34;;;;;;;7.28;4.20;;;19.10;99.90;;;;;;3605934;39;20058;-87
2021/06/05 03:44:03;;;;;;;10.65;5.20;;;19.10;99.90;;;;;;3597445;39;20024;-86
2021/06/05 03:46:33;;;;;;;6.30;4.35;;;19.20;99.90;;;;;;3605969;39;20032;-87
2021/06/05 03:49:03;;;;;;;8.70;4.18;;;19.40;99.90;;;;;;3613053;39;20119;-87
2021/06/05 03:51:35;;;;;;;10.15;5.18;;;19.30;99.90;;;;;;3603283;39;20043;-84
2021/06/05 03:54:09;;;;;;;6.05;4.47;;;19.30;99.90;;;;;;3581417;40;20072;-86
2021/06/05 03:56:37;;;;;;;5.53;3.53;;;19.40;99.90;;;;;;3580722;40;20081;-85
2021/06/05 03:59:07;;;;;;;5.93;3.83;;;19.40;99.90;;;;;;3571409;40;20056;-85
2021/06/05 04:01:35;;;;;;;5.60;4.43;;;19.40;99.90;;;;;;3578676;40;20089;-85
2021/06/05 04:04:04;;;;;;;5.13;3.72;;;19.50;99.90;;;;;;3563190;40;20454;-85
2021/06/05 04:06:33;;;;;;;8.88;4.22;;;19.60;99.90;;;;;;3570736;40;20101;-85
2021/06/05 04:09:00;;;;;;;7.25;4.07;;;19.70;99.90;;;;;;3579037;40;20081;-85
2021/06/05 04:11:29;;;;;;;9.82;4.68;;;19.80;99.90;;;;;;3581301;40;20080;-86
2021/06/05 04:13:57;;;;;;;7.18;3.70;;;19.80;99.90;;;;;;3582568;40;20033;-86
2021/06/05 04:16:30;;;;;;;6.55;4.32;;;19.80;99.90;;;;;;3591145;40;20395;-85
2021/06/05 04:19:01;;;;;;;8.82;4.90;;;19.80;99.90;;;;;;3573734;40;20057;-86
2021/06/05 04:21:29;;;;;;;9.27;5.75;;;19.90;99.90;;;;;;3574019;40;20057;-85
2021/06/05 04:24:07;;;;;;;8.47;4.67;;;20.00;99.90;;;;;;3574042;40;20061;-86
2021/06/05 04:27:00;;;;;;;8.27;4.13;;;20.10;99.90;;;;;;4139210;22;20036;31
2021/06/05 04:29:53;;;;;;;8.65;4.57;;;20.10;99.90;;;;;;3561498;40;20023;-86
2021/06/05 04:40:55;;;;;;;6.00;4.05;;;20.60;99.90;;;;;;3641584;39;20057;-85
2021/06/05 04:43:23;;;;;;;9.00;3.88;;;20.70;99.90;;;;;;3623868;39;20071;-83
2021/06/05 04:45:52;;;;;;;6.25;4.20;;;20.70;99.90;;;;;;3631816;39;20038;-85
2021/06/05 04:48:24;;;;;;;8.32;4.18;;;20.90;99.90;;;;;;3631598;39;20361;-85
2021/06/05 04:50:53;;;;;;;6.40;4.07;;;21.10;99.90;;;;;;3622784;39;20361;-86
2021/06/05 04:53:23;;;;;;;9.52;4.25;;;21.20;99.90;;;;;;3640201;39;20046;-85
2021/06/05 04:55:51;;;;;;;10.55;4.93;;;21.30;99.90;;;;;;3615174;39;20034;-85
2021/06/05 04:58:24;;;;;;;8.45;4.70;;;21.40;99.90;;;;;;3624758;39;20376;-86
2021/06/05 05:00:53;;;;;;;6.80;4.70;;;21.30;99.90;;;;;;3592008;39;20067;-84
2021/06/05 05:03:24;;;;;;;6.78;4.75;;;21.30;99.90;;;;;;3591013;40;20059;-88
2021/06/05 05:05:56;;;;;;;6.47;3.83;;;21.40;99.90;;;;;;3591735;40;20040;-85
2021/06/05 05:08:25;;;;;;;6.15;4.25;;;21.40;99.90;;;;;;3596102;40;20096;-85
2021/06/05 05:10:54;;;;;;;6.55;4.30;;;21.60;99.90;;;;;;3600762;40;20060;-87
2021/06/05 05:13:26;;;;;;;7.43;4.55;;;21.80;99.90;;;;;;3591211;40;20076;-86
2021/06/05 05:15:58;;;;;;;12.23;5.18;;;22.10;99.90;;;;;;3582628;40;20056;-85
2021/06/05 05:18:26;;;;;;;7.45;4.65;;;22.20;99.90;;;;;;3598699;40;20074;-86
2021/06/05 05:20:54;;;;;;;9.68;5.40;;;22.50;99.90;;;;;;3598285;40;20155;-86
2021/06/05 05:23:27;;;;;;;5.68;3.65;;;22.70;99.90;;;;;;3605489;40;20064;-84
2021/06/05 05:25:58;;;;;;;7.38;3.88;;;22.90;99.90;;;;;;3597726;40;20052;-84
2021/06/05 05:28:27;;;;;;;5.97;4.20;;;22.90;99.90;;;;;;3607885;40;20072;-84
2021/06/05 05:30:56;;;;;;;7.28;4.13;;;22.90;99.90;;;;;;3580242;40;20056;-84
2021/06/05 05:33:25;;;;;;;10.27;4.95;;;23.00;99.90;;;;;;3595870;40;20198;-84
2021/06/05 05:35:54;;;;;;;9.18;4.07;;;22.90;99.90;;;;;;3604794;40;20072;-86
2021/06/05 05:38:23;;;;;;;8.02;3.88;;;22.90;99.90;;;;;;3626020;39;20067;-84
2021/06/05 05:40:52;;;;;;;6.25;3.67;;;22.90;99.90;;;;;;3611418;39;20071;-86
2021/06/05 05:43:20;;;;;;;5.30;3.45;;;22.90;99.90;;;;;;3615068;39;20030;-87
2021/06/05 05:45:53;;;;;;;7.78;3.70;;;23.00;99.90;;;;;;3630195;39;20046;-87
2021/06/05 05:48:21;;;;;;;10.32;4.88;;;23.10;99.90;;;;;;3614976;39;20074;-84
2021/06/05 05:50:50;;;;;;;7.43;5.13;;;23.30;99.90;;;;;;3608854;39;20088;-87
2021/06/05 05:56:01;;;;;;;9.53;4.50;;;22.40;99.90;;;;;;3762330;22;20043;-88
2021/06/05 06:02:06;;;;;;;7.72;4.18;;;21.90;99.90;;;;;;3702611;22;20932;-89
2021/06/05 06:10:14;;;;;;;7.35;3.70;;;22.30;99.90;;;;;;3617697;39;20063;-78
2021/06/05 06:12:42;;;;;;;10.77;3.97;;;22.60;99.90;;;;;;3620389;39;20297;-77
2021/06/05 06:15:13;;;;;;;9.65;4.00;;;22.60;99.90;;;;;;3609201;39;20418;-80
2021/06/05 06:17:42;;;;;;;7.13;4.07;;;22.30;99.90;;;;;;3622624;39;20067;-79
2021/06/05 06:20:18;;;;;;;6.50;4.13;;;22.10;99.90;;;;;;3612652;39;20087;-78
2021/06/05 06:22:46;;;;;;;12.35;4.07;;;22.00;99.90;;;;;;3621147;39;20086;-80
2021/06/05 06:25:16;;;;;;;9.23;4.25;;;22.00;99.90;;;;;;3621007;39;20087;-78
2021/06/05 06:27:43;;;;;;;8.20;3.90;;;21.90;99.90;;;;;;3621435;39;20086;-79
2021/06/05 06:30:14;;;;;;;10.02;4.53;;;21.90;99.90;;;;;;3613707;39;20071;-79
2021/06/05 06:32:47;;;;;;;8.95;4.10;;;22.10;99.90;;;;;;3613214;39;20098;-78
2021/06/05 06:35:15;;;;;;;5.50;2.97;;;22.40;99.90;;;;;;3604324;39;20090;-78
2021/06/05 06:37:42;;;;;;;10.60;3.20;;;22.70;99.90;;;;;;3621407;39;20067;-78
2021/06/05 06:40:10;;;;;;;7.53;3.40;;;23.00;99.90;;;;;;3602730;39;20332;-78
2021/06/05 06:42:38;;;;;;;7.10;2.97;;;23.40;99.90;;;;;;3621596;39;20079;-77
2021/06/05 06:45:06;;;;;;;5.90;3.08;;;23.70;99.90;;;;;;3620197;39;20091;-77
2021/06/05 06:47:38;;;;;;;5.65;2.72;;;24.00;99.90;;;;;;3603842;39;20079;-77
2021/06/05 06:50:09;;;;;;;5.50;2.90;;;24.20;99.90;;;;;;3612332;39;20400;-77
2021/06/05 06:52:37;;;;;;;5.43;3.00;;;24.40;99.90;;;;;;3620434;39;20085;-78
2021/06/05 06:55:07;;;;;;;4.63;2.67;;;24.60;99.90;;;;;;3619267;39;20071;-79
2021/06/05 06:57:37;;;;;;;4.35;2.78;;;24.70;99.90;;;;;;3616785;39;20090;-78
2021/06/05 07:00:11;;;;;;;7.43;3.22;;;24.80;99.90;;;;;;3617931;39;20082;-79
2021/06/05 07:02:38;;;;;;;5.20;3.58;;;25.00;99.90;;;;;;3609855;39;20064;-79
2021/06/05 07:05:08;;;;;;;7.57;3.33;;;25.10;99.90;;;;;;3612135;39;20094;-78
2021/06/05 07:07:35;;;;;;;5.22;3.20;;;25.10;99.90;;;;;;3593997;39;20064;-78
2021/06/05 07:10:04;;;;;;;6.57;2.75;;;25.10;99.90;;;;;;3618752;39;20075;-78
2021/06/05 07:12:34;;;;;;;7.07;3.83;;;25.10;99.90;;;;;;3610313;39;20068;-77
2021/06/05 07:15:02;;;;;;;5.57;2.83;;;25.10;99.90;;;;;;3612585;39;20063;-80
2021/06/05 07:17:33;;;;;;;6.65;3.72;;;25.10;99.90;;;;;;3622184;39;20086;-78
2021/06/05 07:20:04;;;;;;;5.78;3.53;;;25.00;99.90;;;;;;3622317;39;20067;-76
2021/06/05 07:22:33;;;;;;;6.68;3.05;;;25.10;99.90;;;;;;3619396;39;20083;-80
2021/06/05 07:25:00;;;;;;;7.22;3.75;;;25.20;99.90;;;;;;3610681;39;20068;-78
2021/06/05 07:27:27;;;;;;;6.05;3.80;;;25.30;99.90;;;;;;3620065;39;20063;-78
2021/06/05 07:29:55;;;;;;;7.43;4.20;;;25.50;99.40;;;;;;3611854;39;20485;-78
2021/06/05 07:32:22;;;;;;;7.13;4.32;;;25.60;99.20;;;;;;3621660;39;20067;-78
2021/06/05 07:34:52;;;;;;;6.40;4.22;;;25.80;99.00;;;;;;3620704;39;20308;-78
2021/06/05 07:37:24;;;;;;;7.57;3.63;;;25.90;98.20;;;;;;3611783;39;20071;-78
2021/06/05 07:39:53;;;;;;;4.97;3.58;;;26.00;98.30;;;;;;3612710;39;20094;-79
2021/06/05 07:42:20;;;;;;;;;;;26.20;97.90;;;;;;3618845;39;20091;-79
2021/06/05 07:44:47;;;;;;;7.13;3.80;;;26.40;97.60;;;;;;3620722;39;19971;-79
2021/06/05 07:47:14;;;;;;;6.10;3.50;;;26.50;96.70;;;;;;3621624;39;20091;-78
2021/06/05 07:49:42;;;;;;;8.18;3.20;;;26.60;96.30;;;;;;3613699;39;20091;-79
2021/06/05 07:52:11;;;;;;;6.78;3.70;;;26.70;96.20;;;;;;3627489;39;20052;-77
2021/06/05 07:54:39;;;;;;;7.63;3.88;;;26.80;95.50;;;;;;3618491;39;20059;-77
2021/06/05 07:57:10;;;;;;;5.28;2.80;;;26.90;95.10;;;;;;3625789;39;20060;-79
2021/06/05 07:59:41;;;;;;;8.40;3.45;;;27.00;94.80;;;;;;3621102;39;20409;-78
2021/06/05 08:02:11;;;;;;;4.88;3.50;;;27.20;94.40;;;;;;3626192;39;20063;-79
2021/06/05 08:04:38;;;;;;;5.70;3.35;;;27.20;94.10;;;;;;3621074;39;20091;-78
2021/06/05 08:07:05;;;;;;;7.10;3.25;;;27.30;93.40;;;;;;3620955;39;20398;-79
2021/06/05 08:09:37;;;;;;;12.23;4.40;;;27.50;93.20;;;;;;3616284;39;20078;-78
2021/06/05 08:12:06;;;;;;;11.98;3.33;;;27.80;91.90;;;;;;3619768;39;20091;-78
2021/06/05 08:14:35;;;;;;;6.20;3.67;;;27.90;91.60;;;;;;3619896;39;20075;-78
2021/06/05 08:17:02;;;;;;;;;;;28.00;91.30;;;;;;3620675;39;20118;-78
2021/06/05 08:19:29;;;;;;;4.97;3.20;;;28.20;90.60;;;;;;3622317;39;21005;-85
2021/06/05 08:21:57;;;;;;;3.80;2.58;;;28.30;90.00;;;;;;3721960;22;20066;-83
2021/06/05 08:24:24;;;;;;;4.57;3.23;;;28.30;89.20;;;;;;3616351;39;20087;-84
2021/06/05 08:26:52;;;;;;;5.53;3.30;;;28.40;88.40;;;;;;3618985;39;20067;-84
2021/06/05 08:29:20;;;;;;;;;;;28.50;87.80;;;;;;3617877;39;20070;-83
2021/06/05 08:31:53;;;;;;;4.03;2.78;;;28.60;86.00;;;;;;3637196;39;19955;-82
2021/06/05 08:34:26;;;;;;;4.82;3.00;;;28.70;84.90;;;;;;3633629;39;20476;-84
2021/06/05 08:36:55;;;;;;;6.68;3.35;;;28.60;84.20;;;;;;3627357;39;20066;-82
2021/06/05 08:39:23;;;;;;;7.25;3.58;;;28.70;83.90;;;;;;3602487;39;20059;-87
2021/06/05 08:41:55;;;;;;;11.45;3.53;;;28.40;83.20;;;;;;3622382;39;20082;-85
2021/06/05 08:44:34;;;;;;;6.13;3.25;;;28.40;84.00;;;;;;3622258;39;20066;-83
2021/06/05 08:47:07;;;;;;;9.55;3.90;;;28.40;83.10;;;;;;3619194;39;20067;-85
2021/06/05 08:49:39;;;;;;;4.63;3.25;;;28.00;84.00;;;;;;3625542;39;20098;-85
2021/06/05 08:52:10;;;;;;;6.90;3.65;;;28.10;84.60;;;;;;3610397;39;20062;-84
2021/06/05 08:54:47;;;;;;;6.00;3.13;;;28.30;83.50;;;;;;3632410;39;20094;-83
2021/06/05 08:57:29;;;;;;;5.55;3.20;;;28.50;82.90;;;;;;3628597;39;20086;-85
2021/06/05 08:59:58;;;;;;;4.97;3.03;;;28.60;81.90;;;;;;3610715;39;20058;-85
2021/06/05 09:02:31;;;;;;;7.22;3.50;;;28.50;81.80;;;;;;3628559;39;20300;-84
2021/06/05 09:05:03;;;;;;;4.55;2.92;;;28.70;80.60;;;;;;3631614;39;20063;-84
2021/06/05 09:07:40;;;;;;;6.30;2.90;;;28.80;79.00;;;;;;3616772;39;20064;-85
2021/06/05 09:10:09;;;;;;;4.90;2.42;;;28.90;78.10;;;;;;3629064;39;20059;-84
2021/06/05 09:12:36;;;;;;;9.38;3.53;;;29.00;77.10;;;;;;3613962;39;20063;-84
2021/06/05 09:15:07;;;;;;;7.88;2.40;;;29.10;77.00;;;;;;3617641;39;20308;-83
2021/06/05 09:17:48;;;;;;;7.82;2.90;;;29.20;76.50;;;;;;3615801;39;20063;-84
2021/06/05 09:20:27;;;;;;;5.70;2.95;;;29.30;75.40;;;;;;3615112;39;20099;-83
2021/06/05 09:22:55;;;;;;;5.18;2.83;;;29.50;74.90;;;;;;3616247;39;20066;-82
2021/06/05 09:25:30;;;;;;;3.95;2.40;;;29.60;74.40;;;;;;3625211;39;20083;-85
2021/06/05 09:28:16;;;;;;;8.00;3.30;;;29.70;73.50;;;;;;3617482;39;20070;-85
2021/06/05 09:30:45;;;;;;;;;;;29.70;72.50;;;;;;3604816;39;20120;-85
2021/06/05 09:33:28;;;;;;;7.45;2.88;;;29.70;72.30;;;;;;3618715;39;19962;-84
2021/06/05 09:36:14;;;;;;;4.50;2.30;;;29.70;72.40;;;;;;3617268;39;20289;-84
2021/06/05 09:38:47;;;;;;;4.53;2.80;;;29.80;71.70;;;;;;3609775;39;20071;-84
2021/06/05 09:41:21;;;;;;;9.40;3.90;;;30.00;70.40;;;;;;3615120;39;20090;-86
2021/06/05 09:43:54;;;;;;;8.15;3.70;;;30.00;69.40;;;;;;3599722;39;20074;-85
2021/06/05 09:46:26;;;;;;;9.38;4.80;;;30.10;68.80;;;;;;3608053;39;20078;-86
2021/06/05 09:49:16;;;;;;;6.55;3.10;;;30.10;68.30;;;;;;3624441;39;20294;-86
2021/06/05 09:51:58;;;;;;;5.47;3.03;;;30.30;68.10;;;;;;3616979;39;20082;-84
2021/06/05 09:54:30;;;;;;;4.03;2.63;;;30.30;68.10;;;;;;3606794;39;20059;-86
2021/06/05 09:57:17;;;;;;;7.22;4.22;;;30.20;66.50;;;;;;3624916;39;20087;-84
2021/06/05 09:59:46;;;;;;;6.45;3.10;;;30.30;65.50;;;;;;3617484;39;20071;-86
2021/06/05 10:02:20;;;;;;;8.55;2.75;;;30.50;64.20;;;;;;3618736;39;20070;-84
2021/06/05 10:05:19;;;;;;;5.53;3.50;;;30.70;63.80;;;;;;3640875;39;20045;-84
2021/06/05 10:07:50;;;;;;;5.30;2.97;;;30.80;62.10;;;;;;3617395;39;20083;-84
2021/06/05 10:10:32;;;;;;;6.40;3.80;;;30.90;60.00;;;;;;3616107;39;20067;-84
2021/06/05 10:13:03;;;;;;;9.75;3.75;;;30.90;58.70;;;;;;3614208;39;20434;-85
2021/06/05 10:15:37;;;;;;;4.82;3.10;;;30.90;57.80;;;;;;3608018;39;20067;-84
2021/06/05 10:18:09;;;;;;;4.30;2.90;;;30.90;57.00;;;;;;3616211;39;20070;-84
2021/06/05 10:20:48;;;;;;;6.40;3.00;;;30.80;56.60;;;;;;3624695;39;20086;-84
2021/06/05 10:23:25;;;;;;;7.40;3.88;;;30.90;57.30;;;;;;3617128;39;20074;-83
2021/06/05 10:25:57;;;;;;;5.18;3.03;;;31.30;57.00;;;;;;3620192;39;20074;-84
2021/06/05 10:28:28;;;;;;;4.88;2.88;;;31.60;57.00;;;;;;3622683;39;20035;-85
2021/06/05 10:31:00;;;;;;;8.98;2.90;;;31.50;57.80;;;;;;3621505;39;20047;-84
2021/06/05 10:33:43;;;;;;;4.30;2.90;;;31.50;56.20;;;;;;3625961;39;20090;-83
2021/06/05 10:36:27;;;;;;;7.07;3.40;;;31.50;55.30;;;;;;3631780;39;20377;-84
2021/06/05 10:38:58;;;;;;;6.32;2.90;;;31.50;55.80;;;;;;3623155;39;20087;-84
2021/06/05 10:41:31;;;;;;;6.18;2.50;;;31.70;56.20;;;;;;3624375;39;20094;-85
2021/06/05 10:43:59;;;;;;;5.35;3.13;;;31.70;56.60;;;;;;3624860;39;20070;-84
2021/06/05 10:46:38;;;;;;;;;;;31.80;56.00;;;;;;3600421;39;20086;-85
2021/06/05 10:49:11;;;;;;;4.45;2.80;;;31.80;55.80;;;;;;3620202;39;19975;-85
2021/06/05 10:52:01;;;;;;;5.22;2.67;;;31.90;56.20;;;;;;3612352;39;20059;-84
2021/06/05 10:54:29;;;;;;;5.70;2.70;;;31.90;56.10;;;;;;3621284;39;20082;-85
2021/06/05 10:57:21;;;;;;;8.52;3.20;;;32.00;55.70;;;;;;3610099;39;20082;-84
2021/06/05 10:59:51;;;;;;;5.68;2.85;;;31.80;55.70;;;;;;3625211;39;20075;-86
2021/06/05 11:02:43;;;;;;;5.97;3.40;;;31.70;56.40;;;;;;3623150;39;20082;-86
2021/06/05 11:05:42;;;;;;;6.85;2.58;;;31.50;55.10;;;;;;3622879;39;20405;-85
2021/06/05 11:08:41;;;;;;;4.57;2.97;;;31.30;56.20;;;;;;3616513;39;20071;-84
2021/06/05 11:11:29;;;;;;;4.78;2.70;;;31.40;56.30;;;;;;3622674;39;20071;-83
2021/06/05 11:13:56;;;;;;;;;;;31.50;55.20;;;;;;3614447;39;20070;-83
2021/06/05 11:17:10;;;;;;;6.00;2.83;;;31.60;55.10;;;;;;3617606;39;19971;-85
2021/06/05 11:19:41;;;;;;;6.13;2.92;;;31.60;55.50;;;;;;3602535;39;20090;-84
2021/06/05 11:22:12;;;;;;;8.93;3.40;;;31.70;55.50;;;;;;3624392;39;20062;-85
2021/06/05 11:24:43;;;;;;;4.60;2.60;;;31.80;55.30;;;;;;3623254;39;20059;-85
2021/06/05 11:27:12;;;;;;;6.43;2.90;;;32.10;54.10;;;;;;3624173;39;20098;-85
2021/06/05 11:29:55;;;;;;;5.22;2.80;;;32.00;54.50;;;;;;3611512;39;20062;-84
2021/06/05 11:32:58;;;;;;;7.25;2.70;;;32.10;54.00;;;;;;3620891;39;20087;-84
2021/06/05 11:35:40;;;;;;;4.18;2.53;;;33.40;52.00;;;;;;3613788;39;20091;-85
2021/06/05 11:38:10;;;;;;;9.23;3.13;;;34.30;50.40;;;;;;3603933;39;20386;-85
2021/06/05 11:41:06;;;;;;;6.32;2.90;;;34.60;50.10;;;;;;3621466;39;20397;-85
2021/06/05 11:43:53;;;;;;;4.80;2.75;;;35.20;50.50;;;;;;3631022;39;20075;-84
2021/06/05 11:46:55;;;;;;;5.03;2.92;;;36.10;47.00;;;;;;3621408;39;20034;-84
2021/06/05 11:49:55;;;;;;;5.13;2.70;;;37.40;45.00;;;;;;3613173;39;20067;-87
2021/06/05 11:52:38;;;;;;;3.72;2.42;;;37.70;44.80;;;;;;3619277;39;20038;-85
2021/06/05 11:55:27;;;;;;;5.22;3.00;;;37.70;45.30;;;;;;3630383;39;20063;-85
2021/06/05 11:58:05;;;;;;;4.85;2.88;;;38.80;44.50;;;;;;3622074;39;20076;-84
2021/06/05 12:00:36;;;;;;;5.28;2.83;;;40.50;42.90;;;;;;3622460;39;20307;-83
2021/06/05 12:03:10;;;;;;;3.60;2.40;;;41.90;40.80;;;;;;3632991;39;20030;-84
2021/06/05 12:05:42;;;;;;;4.85;2.60;;;42.70;39.40;;;;;;3625219;39;20039;-85
2021/06/05 12:08:32;;;;;;;3.85;2.53;;;43.10;38.80;;;;;;3628064;39;20067;-83
2021/06/05 12:11:00;;;;;;;8.93;3.53;;;43.90;37.50;;;;;;3608014;39;20071;-84
2021/06/05 12:13:33;;;;;;;5.75;2.80;;;43.70;36.80;;;;;;3624558;39;20079;-84
2021/06/05 12:16:09;;;;;;;3.92;3.10;;;43.10;36.80;;;;;;3630906;39;20071;-83
2021/06/05 12:18:38;;;;;;;4.32;2.47;;;43.70;36.30;;;;;;3613034;39;20304;-84
2021/06/05 12:21:30;;;;;;;4.20;2.75;;;44.30;36.30;;;;;;3621373;39;20086;-85
2021/06/05 12:23:59;;;;;;;4.35;2.67;;;43.40;36.40;;;;;;3605478;39;20349;-84
2021/06/05 12:26:28;;;;;;;5.97;2.83;;;42.10;37.80;;;;;;3620855;39;20109;-87
2021/06/05 12:29:13;;;;;;;6.18;2.90;;;40.90;39.00;;;;;;3611899;39;20063;-83
2021/06/05 12:31:43;;;;;;;6.55;2.67;;;40.00;40.10;;;;;;3611781;39;20055;-83
2021/06/05 12:34:12;;;;;;;4.78;2.67;;;40.40;40.30;;;;;;3603632;39;20098;-83
2021/06/05 12:36:42;;;;;;;5.35;3.13;;;41.20;39.30;;;;;;3630317;39;20059;-83
2021/06/05 12:39:15;;;;;;;4.95;3.30;;;41.20;39.30;;;;;;3619608;39;20075;-85
2021/06/05 12:41:45;;;;;;;7.82;2.70;;;41.60;39.10;;;;;;3620375;39;20086;-84
2021/06/05 12:44:17;;;;;;;6.55;3.17;;;42.70;38.20;;;;;;3621704;39;20059;-83
2021/06/05 12:46:44;;;;;;;3.97;2.80;;;43.60;37.40;;;;;;3610321;39;20437;-84
2021/06/05 12:49:17;;;;;;;5.22;2.65;;;44.50;36.40;;;;;;3613013;39;20334;-85
2021/06/05 12:51:47;;;;;;;4.47;2.80;;;44.30;36.10;;;;;;3619948;39;20086;-85
2021/06/05 12:54:28;;;;;;;5.63;3.20;;;44.60;35.90;;;;;;3610903;39;20490;-85
2021/06/05 12:56:58;;;;;;;3.65;2.35;;;44.30;35.40;;;;;;3625976;39;20090;-85
2021/06/05 12:59:33;;;;;;;6.32;3.22;;;44.80;35.40;;;;;;3612908;39;20090;-85
2021/06/05 13:02:22;;;;;;;4.65;2.70;;;45.40;34.60;;;;;;3616371;39;20074;-84
2021/06/05 13:04:51;;;;;;;5.95;2.55;;;45.50;34.10;;;;;;3603384;39;20066;-85
2021/06/05 13:07:33;;;;;;;3.92;2.70;;;45.40;33.80;;;;;;3622115;39;20063;-83
2021/06/05 13:10:16;;;;;;;3.50;2.40;;;45.60;34.00;;;;;;3609722;39;20066;-84
2021/06/05 13:12:43;;;;;;;4.57;2.55;;;46.20;33.40;;;;;;3629836;39;20307;-84
2021/06/05 13:15:15;;;;;;;7.93;2.30;;;46.00;33.60;;;;;;3612786;39;20078;-84
2021/06/05 13:17:52;;;;;;;3.65;2.35;;;45.80;33.80;;;;;;3612360;39;20082;-83
2021/06/05 13:20:28;;;;;;;4.63;2.85;;;45.50;33.80;;;;;;3619274;39;20417;-84
2021/06/05 13:23:34;;;;;;;5.32;2.97;;;46.00;34.10;;;;;;3620472;39;20394;-84
2021/06/05 13:26:28;;;;;;;6.10;3.22;;;46.80;33.50;;;;;;3589666;39;20071;-84
2021/06/05 13:28:56;;;;;;;7.38;3.20;;;47.60;33.10;;;;;;3612215;39;20314;-84
2021/06/05 13:31:40;;;;;;;6.05;3.28;;;47.50;33.00;;;;;;3593978;39;20071;-85
2021/06/05 13:34:15;;;;;;;4.88;3.40;;;45.50;34.00;;;;;;3610952;39;20090;-84
2021/06/05 13:36:47;;;;;;;7.07;3.35;;;43.40;35.50;;;;;;3619850;39;20095;-85
2021/06/05 13:39:17;;;;;;;4.93;3.25;;;41.50;37.00;;;;;;3610454;39;20342;-81
2021/06/05 13:41:45;;;;;;;6.15;3.15;;;40.20;38.40;;;;;;3611905;39;20106;-84
2021/06/05 13:44:14;;;;;;;5.22;2.88;;;40.40;38.50;;;;;;3621237;39;20131;-84
2021/06/05 13:46:43;;;;;;;7.00;3.00;;;41.00;37.60;;;;;;3610794;39;20063;-84
2021/06/05 13:49:12;;;;;;;5.43;3.60;;;41.30;37.30;;;;;;3610634;39;20083;-84
2021/06/05 13:51:39;;;;;;;4.55;3.40;;;41.40;37.30;;;;;;3622838;39;20094;-83
2021/06/05 13:54:07;;;;;;;;;;;40.90;37.50;;;;;;3590976;39;20087;-84
2021/06/05 13:56:37;;;;;;;6.18;3.30;;;40.30;38.90;;;;;;3615952;39;19972;-84
2021/06/05 13:59:06;;;;;;;7.07;3.50;;;39.80;38.90;;;;;;3609169;39;20075;-84
2021/06/05 14:01:35;;;;;;;7.60;3.78;;;39.30;39.40;;;;;;3594137;39;20087;-84
2021/06/05 14:04:06;;;;;;;4.97;2.90;;;39.30;39.40;;;;;;3606795;39;20071;-85
2021/06/05 14:06:33;;;;;;;6.75;3.70;;;39.50;39.40;;;;;;3609209;39;20166;-83
2021/06/05 14:09:01;;;;;;;6.28;3.80;;;39.60;39.00;;;;;;3615996;39;20071;-83
2021/06/05 14:11:28;;;;;;;4.25;3.30;;;39.10;39.00;;;;;;3620036;39;20082;-85
2021/06/05 14:13:57;;;;;;;7.75;3.45;;;38.00;39.90;;;;;;3602251;39;20079;-85
2021/06/05 14:16:27;;;;;;;6.65;3.38;;;37.10;41.10;;;;;;3610368;39;20312;-84
2021/06/05 14:18:54;;;;;;;5.75;3.60;;;36.50;41.70;;;;;;3611035;39;20088;-84
2021/06/05 14:21:24;;;;;;;4.75;3.60;;;36.00;42.50;;;;;;3603497;39;20059;-84
2021/06/05 14:23:51;;;;;;;5.65;3.55;;;35.90;42.90;;;;;;3605140;39;20067;-84
2021/06/05 14:26:21;;;;;;;6.93;3.88;;;35.90;42.70;;;;;;3594563;39;20138;-84
2021/06/05 14:28:48;;;;;;;10.90;4.75;;;35.60;42.90;;;;;;3601843;39;20079;-84
2021/06/05 14:31:19;;;;;;;7.60;3.72;;;35.00;43.70;;;;;;3609388;39;20460;-85
2021/06/05 14:33:48;;;;;;;5.07;3.83;;;34.30;45.00;;;;;;3611511;39;20067;-84
2021/06/05 14:36:16;;;;;;;6.47;3.90;;;33.40;46.40;;;;;;3611331;39;20096;-83
2021/06/05 14:38:45;;;;;;;5.65;4.05;;;32.90;47.60;;;;;;3613792;39;20091;-86
2021/06/05 14:41:12;;;;;;;6.00;4.07;;;32.50;48.20;;;;;;3610354;39;20071;-84
2021/06/05 14:43:42;;;;;;;11.68;4.22;;;32.20;49.00;;;;;;3588950;39;20083;-84
2021/06/05 14:46:12;;;;;;;4.72;3.95;;;32.10;49.40;;;;;;3612645;39;20408;-84
2021/06/05 14:48:39;;;;;;;5.75;4.00;;;31.90;49.50;;;;;;3604373;39;20083;-88
2021/06/05 14:51:07;;;;;;;6.83;4.10;;;31.70;49.70;;;;;;3613130;39;20079;-86
2021/06/05 14:53:35;;;;;;;4.65;3.70;;;31.50;50.40;;;;;;3604644;39;20103;-84
2021/06/05 14:56:07;;;;;;;6.85;4.57;;;31.30;50.40;;;;;;3610572;39;20091;-83
2021/06/05 14:58:35;;;;;;;7.03;4.85;;;31.10;50.80;;;;;;3604742;39;20285;-85
2021/06/05 15:01:05;;;;;;;8.63;4.63;;;31.00;51.30;;;;;;3601399;39;20091;-84
2021/06/05 15:03:35;;;;;;;7.90;4.72;;;30.80;52.10;;;;;;3598698;39;20091;-84
2021/06/05 15:06:03;;;;;;;7.03;5.50;;;30.70;51.90;;;;;;3607926;39;20060;-83
2021/06/05 15:08:32;;;;;;;8.93;5.80;;;30.50;52.50;;;;;;3616707;39;20076;-85
2021/06/05 15:10:59;;;;;;;9.80;5.03;;;30.50;52.20;;;;;;3614625;39;20082;-83
2021/06/05 15:13:31;;;;;;;7.25;5.18;;;29.70;55.00;;;;;;3617855;39;20345;-84
2021/06/05 15:15:58;;;;;;;7.70;4.95;;;28.60;58.20;;;;;;3611314;39;20079;-83
2021/06/05 15:18:26;;;;;;;6.95;5.28;;;28.00;60.30;;;;;;3624011;39;20064;-83